East Ely, Nevada
Current Conditions -  °F | °C
As of 2:53 AM on Tuesday 21 Oct 2014 (Local Time) from KELY Reporting Station
Clear Clear  
Wind Chill: 55°   Ceiling: Unl
Heat Index: 55°   Visibility: 10mi
Dew Point: 35°   Wind: 15mph
Humidity: 47%   Direction: 160°SSE
Pressure: 29.97"   Gusts: 25mph
Location:  39.25°N, 114.87°W
Report Text: KELY 210953Z AUTO 16013G22KT 10SM CLR 13/02 A2997 RMK AO2 PK WND 15026/0855 SLP056 T01280017
Loading
Personal Weather Stations






























Interactive Weather Map
Tropical Storm Tracking
New forecast layout! Learn more

10-Day Weather Forecast

Advertisements
Track Severe Weather on mobile